sensor_id;sensor_type;location;lat;lon;timestamp;pressure;altitude;pressure_sealevel;temperature;humidity
47753;BME280;2038;51.728;6.674;2022-07-17T00:01:07;102003.41;;;15.51;83.95
47753;BME280;2038;51.728;6.674;2022-07-17T00:03:33;102003.19;;;15.48;84.05
47753;BME280;2038;51.728;6.674;2022-07-17T00:06:00;102006.44;;;15.32;84.92
47753;BME280;2038;51.728;6.674;2022-07-17T00:08:26;102007.50;;;15.23;85.36
47753;BME280;2038;51.728;6.674;2022-07-17T00:10:52;102011.34;;;15.16;85.18
47753;BME280;2038;51.728;6.674;2022-07-17T00:13:18;102010.00;;;15.10;85.17
47753;BME280;2038;51.728;6.674;2022-07-17T00:15:45;102008.59;;;15.02;85.43
47753;BME280;2038;51.728;6.674;2022-07-17T00:18:11;102010.66;;;14.94;85.52
47753;BME280;2038;51.728;6.674;2022-07-17T00:20:37;102009.69;;;14.92;85.56
47753;BME280;2038;51.728;6.674;2022-07-17T00:23:04;102011.81;;;14.86;85.90
47753;BME280;2038;51.728;6.674;2022-07-17T00:25:30;102008.63;;;14.77;86.41
47753;BME280;2038;51.728;6.674;2022-07-17T00:27:57;102000.63;;;14.72;87.11
47753;BME280;2038;51.728;6.674;2022-07-17T00:30:24;102011.34;;;14.67;87.21
47753;BME280;2038;51.728;6.674;2022-07-17T00:32:50;102003.34;;;14.62;87.14
47753;BME280;2038;51.728;6.674;2022-07-17T00:35:16;102010.72;;;14.58;87.21
47753;BME280;2038;51.728;6.674;2022-07-17T00:37:44;102013.06;;;14.55;87.31
47753;BME280;2038;51.728;6.674;2022-07-17T00:40:17;102013.75;;;14.52;87.23
47753;BME280;2038;51.728;6.674;2022-07-17T00:42:45;102012.75;;;14.50;87.44
47753;BME280;2038;51.728;6.674;2022-07-17T00:45:12;102018.66;;;14.49;87.30
47753;BME280;2038;51.728;6.674;2022-07-17T00:47:56;102016.66;;;14.45;87.21
47753;BME280;2038;51.728;6.674;2022-07-17T00:50:34;102019.00;;;14.42;87.75
47753;BME280;2038;51.728;6.674;2022-07-17T00:53:03;102019.69;;;14.39;87.68
47753;BME280;2038;51.728;6.674;2022-07-17T00:55:30;102014.25;;;14.35;87.92
47753;BME280;2038;51.728;6.674;2022-07-17T00:58:00;102015.75;;;14.33;87.79
47753;BME280;2038;51.728;6.674;2022-07-17T01:00:29;102012.88;;;14.28;88.21
47753;BME280;2038;51.728;6.674;2022-07-17T01:02:56;102012.91;;;14.17;88.55
47753;BME280;2038;51.728;6.674;2022-07-17T01:05:23;102015.41;;;14.03;89.30
47753;BME280;2038;51.728;6.674;2022-07-17T01:07:50;102009.59;;;13.94;90.77
47753;BME280;2038;51.728;6.674;2022-07-17T01:10:18;102005.38;;;13.83;90.98
47753;BME280;2038;51.728;6.674;2022-07-17T01:12:46;102002.47;;;13.79;91.07
47753;BME280;2038;51.728;6.674;2022-07-17T01:15:14;101999.03;;;13.78;90.83
47753;BME280;2038;51.728;6.674;2022-07-17T01:17:42;102002.56;;;13.69;91.43
47753;BME280;2038;51.728;6.674;2022-07-17T01:20:10;102002.03;;;13.61;91.67
47753;BME280;2038;51.728;6.674;2022-07-17T01:22:44;101990.09;;;13.50;92.08
47753;BME280;2038;51.728;6.674;2022-07-17T01:25:13;101998.00;;;13.41;91.75
47753;BME280;2038;51.728;6.674;2022-07-17T01:27:40;102003.34;;;13.33;93.17
47753;BME280;2038;51.728;6.674;2022-07-17T01:30:08;101998.00;;;13.30;93.25
47753;BME280;2038;51.728;6.674;2022-07-17T01:32:36;101996.34;;;13.30;93.31
47753;BME280;2038;51.728;6.674;2022-07-17T01:35:05;102003.25;;;13.31;93.02
47753;BME280;2038;51.728;6.674;2022-07-17T01:37:34;102003.66;;;13.26;93.23
47753;BME280;2038;51.728;6.674;2022-07-17T01:40:01;102006.66;;;13.20;93.33
47753;BME280;2038;51.728;6.674;2022-07-17T01:42:28;102003.41;;;13.11;94.05
47753;BME280;2038;51.728;6.674;2022-07-17T01:44:55;102001.25;;;13.05;94.56
47753;BME280;2038;51.728;6.674;2022-07-17T01:47:22;101999.38;;;13.03;94.99
47753;BME280;2038;51.728;6.674;2022-07-17T01:49:54;101993.88;;;12.98;94.76
47753;BME280;2038;51.728;6.674;2022-07-17T01:52:22;101989.72;;;12.89;95.27
47753;BME280;2038;51.728;6.674;2022-07-17T01:54:50;101992.28;;;12.89;95.18
47753;BME280;2038;51.728;6.674;2022-07-17T01:57:17;101994.97;;;12.90;94.79
47753;BME280;2038;51.728;6.674;2022-07-17T01:59:44;101984.81;;;12.80;95.99
47753;BME280;2038;51.728;6.674;2022-07-17T02:02:11;101980.91;;;12.74;95.97
47753;BME280;2038;51.728;6.674;2022-07-17T02:04:39;101990.38;;;12.75;97.22
47753;BME280;2038;51.728;6.674;2022-07-17T02:07:08;101989.47;;;12.74;97.16
47753;BME280;2038;51.728;6.674;2022-07-17T02:09:36;101990.94;;;12.82;96.72
47753;BME280;2038;51.728;6.674;2022-07-17T02:12:02;101989.38;;;12.84;95.47
47753;BME280;2038;51.728;6.674;2022-07-17T02:14:29;101995.41;;;12.85;95.15
47753;BME280;2038;51.728;6.674;2022-07-17T02:16:56;101992.97;;;12.86;95.25
47753;BME280;2038;51.728;6.674;2022-07-17T02:19:22;101995.75;;;12.89;95.81
47753;BME280;2038;51.728;6.674;2022-07-17T02:21:48;101987.31;;;12.90;95.62
47753;BME280;2038;51.728;6.674;2022-07-17T02:24:15;101982.59;;;12.85;96.40
47753;BME280;2038;51.728;6.674;2022-07-17T02:26:41;101987.38;;;12.80;97.38
47753;BME280;2038;51.728;6.674;2022-07-17T02:29:07;101990.47;;;12.76;97.00
47753;BME280;2038;51.728;6.674;2022-07-17T02:31:34;101994.59;;;12.74;96.93
47753;BME280;2038;51.728;6.674;2022-07-17T02:34:00;101988.13;;;12.68;96.11
47753;BME280;2038;51.728;6.674;2022-07-17T02:36:26;101985.97;;;12.62;95.13
47753;BME280;2038;51.728;6.674;2022-07-17T02:38:52;101991.84;;;12.61;94.77
47753;BME280;2038;51.728;6.674;2022-07-17T02:41:19;101990.06;;;12.60;94.61
47753;BME280;2038;51.728;6.674;2022-07-17T02:43:45;101998.63;;;12.60;93.59
47753;BME280;2038;51.728;6.674;2022-07-17T02:46:11;102003.66;;;12.59;93.72
47753;BME280;2038;51.728;6.674;2022-07-17T02:48:40;102001.63;;;12.55;94.06
47753;BME280;2038;51.728;6.674;2022-07-17T02:51:07;101990.16;;;12.50;94.44
47753;BME280;2038;51.728;6.674;2022-07-17T02:53:34;102001.28;;;12.50;93.88
47753;BME280;2038;51.728;6.674;2022-07-17T02:56:00;102009.56;;;12.48;93.18
47753;BME280;2038;51.728;6.674;2022-07-17T02:58:27;102004.13;;;12.43;93.98
47753;BME280;2038;51.728;6.674;2022-07-17T03:00:53;102004.00;;;12.42;94.26
47753;BME280;2038;51.728;6.674;2022-07-17T03:03:19;102012.88;;;12.35;94.78
47753;BME280;2038;51.728;6.674;2022-07-17T03:05:47;102008.94;;;12.29;95.01
47753;BME280;2038;51.728;6.674;2022-07-17T03:08:13;102014.34;;;12.22;94.85
47753;BME280;2038;51.728;6.674;2022-07-17T03:10:40;102015.38;;;12.24;95.48
47753;BME280;2038;51.728;6.674;2022-07-17T03:13:07;102011.66;;;12.20;96.52
47753;BME280;2038;51.728;6.674;2022-07-17T03:15:33;102019.56;;;12.23;96.31
47753;BME280;2038;51.728;6.674;2022-07-17T03:17:59;102007.56;;;12.22;96.28
47753;BME280;2038;51.728;6.674;2022-07-17T03:20:26;102010.13;;;12.22;96.07
47753;BME280;2038;51.728;6.674;2022-07-17T03:22:52;102012.31;;;12.17;97.33
47753;BME280;2038;51.728;6.674;2022-07-17T03:25:18;102005.22;;;12.03;99.06
47753;BME280;2038;51.728;6.674;2022-07-17T03:27:44;102006.28;;;11.95;99.53
47753;BME280;2038;51.728;6.674;2022-07-17T03:30:11;102005.00;;;11.90;100.00
47753;BME280;2038;51.728;6.674;2022-07-17T03:32:37;102016.00;;;11.89;100.00
47753;BME280;2038;51.728;6.674;2022-07-17T03:35:03;102009.09;;;11.88;100.00
47753;BME280;2038;51.728;6.674;2022-07-17T03:37:30;102001.56;;;11.90;100.00
47753;BME280;2038;51.728;6.674;2022-07-17T03:39:56;102012.00;;;11.93;100.00
47753;BME280;2038;51.728;6.674;2022-07-17T03:42:23;102006.53;;;11.98;100.00
47753;BME280;2038;51.728;6.674;2022-07-17T03:44:49;102010.22;;;12.02;100.00
47753;BME280;2038;51.728;6.674;2022-07-17T03:47:15;102012.75;;;12.02;100.00
47753;BME280;2038;51.728;6.674;2022-07-17T03:49:41;102014.28;;;12.00;99.05
47753;BME280;2038;51.728;6.674;2022-07-17T03:52:08;102010.81;;;12.09;99.59
47753;BME280;2038;51.728;6.674;2022-07-17T03:54:34;102006.59;;;12.10;99.42
47753;BME280;2038;51.728;6.674;2022-07-17T03:57:00;102007.19;;;12.17;99.80
47753;BME280;2038;51.728;6.674;2022-07-17T03:59:26;102007.19;;;12.17;100.00
47753;BME280;2038;51.728;6.674;2022-07-17T04:01:53;102007.59;;;12.12;100.00
47753;BME280;2038;51.728;6.674;2022-07-17T04:04:20;102001.34;;;12.08;100.00
47753;BME280;2038;51.728;6.674;2022-07-17T04:06:46;101994.34;;;12.06;100.00
47753;BME280;2038;51.728;6.674;2022-07-17T04:09:12;102003.16;;;12.09;100.00
47753;BME280;2038;51.728;6.674;2022-07-17T04:11:38;102002.63;;;12.13;100.00
47753;BME280;2038;51.728;6.674;2022-07-17T04:14:05;102000.13;;;12.25;100.00
47753;BME280;2038;51.728;6.674;2022-07-17T04:16:31;102004.94;;;12.32;100.00
47753;BME280;2038;51.728;6.674;2022-07-17T04:18:57;102014.69;;;12.48;100.00
47753;BME280;2038;51.728;6.674;2022-07-17T04:21:23;102011.88;;;12.55;100.00
47753;BME280;2038;51.728;6.674;2022-07-17T04:23:50;102006.06;;;12.57;100.00
47753;BME280;2038;51.728;6.674;2022-07-17T04:26:16;102005.53;;;12.61;100.00
47753;BME280;2038;51.728;6.674;2022-07-17T04:28:42;102014.34;;;12.65;100.00
47753;BME280;2038;51.728;6.674;2022-07-17T04:31:08;102012.00;;;12.68;100.00
47753;BME280;2038;51.728;6.674;2022-07-17T04:33:35;102018.50;;;12.75;100.00
47753;BME280;2038;51.728;6.674;2022-07-17T04:36:01;102017.44;;;12.83;100.00
47753;BME280;2038;51.728;6.674;2022-07-17T04:38:28;102018.69;;;12.88;100.00
47753;BME280;2038;51.728;6.674;2022-07-17T04:40:54;102022.81;;;12.97;100.00
47753;BME280;2038;51.728;6.674;2022-07-17T04:43:20;102016.47;;;13.04;100.00
47753;BME280;2038;51.728;6.674;2022-07-17T04:45:47;102028.69;;;13.18;100.00
47753;BME280;2038;51.728;6.674;2022-07-17T04:48:13;102036.63;;;13.33;100.00
47753;BME280;2038;51.728;6.674;2022-07-17T04:50:39;102043.78;;;13.48;99.72
47753;BME280;2038;51.728;6.674;2022-07-17T04:53:05;102052.84;;;13.67;99.13
47753;BME280;2038;51.728;6.674;2022-07-17T04:55:32;102053.41;;;13.86;98.41
47753;BME280;2038;51.728;6.674;2022-07-17T04:57:58;102053.16;;;14.06;98.00
47753;BME280;2038;51.728;6.674;2022-07-17T05:00:24;102057.03;;;14.24;97.89
47753;BME280;2038;51.728;6.674;2022-07-17T05:02:50;102065.41;;;14.45;96.79
47753;BME280;2038;51.728;6.674;2022-07-17T05:05:17;102062.78;;;14.68;96.30
47753;BME280;2038;51.728;6.674;2022-07-17T05:07:43;102068.03;;;14.94;94.86
47753;BME280;2038;51.728;6.674;2022-07-17T05:10:09;102071.44;;;15.07;94.27
47753;BME280;2038;51.728;6.674;2022-07-17T05:12:36;102064.50;;;15.30;93.03
47753;BME280;2038;51.728;6.674;2022-07-17T05:15:03;102065.22;;;15.53;92.33
47753;BME280;2038;51.728;6.674;2022-07-17T05:17:29;102062.16;;;15.71;90.74
47753;BME280;2038;51.728;6.674;2022-07-17T05:19:55;102071.06;;;15.89;90.50
47753;BME280;2038;51.728;6.674;2022-07-17T05:22:22;102062.44;;;16.15;89.51
47753;BME280;2038;51.728;6.674;2022-07-17T05:24:48;102079.25;;;16.36;88.88
47753;BME280;2038;51.728;6.674;2022-07-17T05:27:14;102078.13;;;16.72;87.59
47753;BME280;2038;51.728;6.674;2022-07-17T05:29:40;102069.50;;;17.00;85.80
47753;BME280;2038;51.728;6.674;2022-07-17T05:32:07;102060.91;;;17.14;85.17
47753;BME280;2038;51.728;6.674;2022-07-17T05:34:33;102067.59;;;17.40;84.88
47753;BME280;2038;51.728;6.674;2022-07-17T05:36:59;102062.06;;;17.33;83.66
47753;BME280;2038;51.728;6.674;2022-07-17T05:39:26;102061.94;;;17.45;84.04
47753;BME280;2038;51.728;6.674;2022-07-17T05:41:52;102053.50;;;17.62;82.41
47753;BME280;2038;51.728;6.674;2022-07-17T05:44:18;102048.66;;;17.54;81.69
47753;BME280;2038;51.728;6.674;2022-07-17T05:46:44;102048.66;;;17.24;82.03
47753;BME280;2038;51.728;6.674;2022-07-17T05:49:11;102043.50;;;17.39;81.71
47753;BME280;2038;51.728;6.674;2022-07-17T05:51:37;102037.84;;;17.45;81.81
47753;BME280;2038;51.728;6.674;2022-07-17T05:54:04;102038.06;;;17.49;82.10
47753;BME280;2038;51.728;6.674;2022-07-17T05:56:30;102046.81;;;17.66;82.12
47753;BME280;2038;51.728;6.674;2022-07-17T05:58:57;102051.63;;;17.74;80.82
47753;BME280;2038;51.728;6.674;2022-07-17T06:01:23;102058.66;;;17.77;80.96
47753;BME280;2038;51.728;6.674;2022-07-17T06:03:49;102058.28;;;17.86;80.47
47753;BME280;2038;51.728;6.674;2022-07-17T06:06:15;102048.41;;;17.93;80.83
47753;BME280;2038;51.728;6.674;2022-07-17T06:08:41;102059.84;;;17.98;80.90
47753;BME280;2038;51.728;6.674;2022-07-17T06:11:08;102054.81;;;18.00;79.93
47753;BME280;2038;51.728;6.674;2022-07-17T06:13:34;102054.84;;;18.16;79.31
47753;BME280;2038;51.728;6.674;2022-07-17T06:16:00;102059.44;;;18.21;79.10
47753;BME280;2038;51.728;6.674;2022-07-17T06:18:26;102059.63;;;18.24;78.39
47753;BME280;2038;51.728;6.674;2022-07-17T06:20:53;102059.13;;;18.15;78.35
47753;BME280;2038;51.728;6.674;2022-07-17T06:23:19;102056.06;;;18.22;78.81
47753;BME280;2038;51.728;6.674;2022-07-17T06:25:45;102058.81;;;18.25;78.51
47753;BME280;2038;51.728;6.674;2022-07-17T06:28:12;102058.09;;;18.28;78.17
47753;BME280;2038;51.728;6.674;2022-07-17T06:30:38;102056.75;;;18.35;78.21
47753;BME280;2038;51.728;6.674;2022-07-17T06:33:04;102054.31;;;18.38;78.15
47753;BME280;2038;51.728;6.674;2022-07-17T06:35:30;102053.25;;;18.49;77.88
47753;BME280;2038;51.728;6.674;2022-07-17T06:37:59;102051.84;;;18.39;78.08
47753;BME280;2038;51.728;6.674;2022-07-17T06:40:27;102044.09;;;18.39;79.20
47753;BME280;2038;51.728;6.674;2022-07-17T06:42:53;102047.88;;;18.46;78.72
47753;BME280;2038;51.728;6.674;2022-07-17T06:45:20;102048.63;;;18.43;78.81
47753;BME280;2038;51.728;6.674;2022-07-17T06:47:46;102054.38;;;18.54;78.71
47753;BME280;2038;51.728;6.674;2022-07-17T06:50:12;102055.81;;;18.49;79.08
47753;BME280;2038;51.728;6.674;2022-07-17T06:52:38;102056.81;;;18.67;79.10
47753;BME280;2038;51.728;6.674;2022-07-17T06:55:05;102058.78;;;18.87;78.35
47753;BME280;2038;51.728;6.674;2022-07-17T06:57:32;102051.09;;;19.05;78.35
47753;BME280;2038;51.728;6.674;2022-07-17T06:59:58;102053.50;;;19.02;76.99
47753;BME280;2038;51.728;6.674;2022-07-17T07:02:24;102051.00;;;19.20;76.38
47753;BME280;2038;51.728;6.674;2022-07-17T07:04:50;102052.19;;;19.26;76.45
47753;BME280;2038;51.728;6.674;2022-07-17T07:07:16;102054.44;;;19.36;75.32
47753;BME280;2038;51.728;6.674;2022-07-17T07:09:43;102047.09;;;19.44;75.64
47753;BME280;2038;51.728;6.674;2022-07-17T07:12:09;102048.75;;;19.26;75.26
47753;BME280;2038;51.728;6.674;2022-07-17T07:14:35;102050.72;;;19.47;74.63
47753;BME280;2038;51.728;6.674;2022-07-17T07:17:01;102045.59;;;19.65;74.33
47753;BME280;2038;51.728;6.674;2022-07-17T07:19:27;102056.97;;;19.86;74.72
47753;BME280;2038;51.728;6.674;2022-07-17T07:21:53;102077.78;;;20.05;74.32
47753;BME280;2038;51.728;6.674;2022-07-17T07:24:20;102075.38;;;20.28;74.03
47753;BME280;2038;51.728;6.674;2022-07-17T07:26:45;102076.06;;;20.41;72.49
47753;BME280;2038;51.728;6.674;2022-07-17T07:29:12;102086.25;;;20.56;71.84
47753;BME280;2038;51.728;6.674;2022-07-17T07:31:38;102087.47;;;20.64;70.89
47753;BME280;2038;51.728;6.674;2022-07-17T07:34:04;102084.00;;;20.64;71.34
47753;BME280;2038;51.728;6.674;2022-07-17T07:36:30;102086.88;;;20.70;72.29
47753;BME280;2038;51.728;6.674;2022-07-17T07:38:57;102081.06;;;20.75;71.21
47753;BME280;2038;51.728;6.674;2022-07-17T07:41:23;102087.38;;;20.80;70.86
47753;BME280;2038;51.728;6.674;2022-07-17T07:43:49;102078.31;;;20.90;70.65
47753;BME280;2038;51.728;6.674;2022-07-17T07:46:16;102078.22;;;20.88;70.73
47753;BME280;2038;51.728;6.674;2022-07-17T07:48:42;102084.03;;;21.02;70.35
47753;BME280;2038;51.728;6.674;2022-07-17T07:51:08;102099.19;;;21.12;69.91
47753;BME280;2038;51.728;6.674;2022-07-17T07:53:35;102098.38;;;21.13;69.70
47753;BME280;2038;51.728;6.674;2022-07-17T07:56:01;102104.50;;;21.15;69.88
47753;BME280;2038;51.728;6.674;2022-07-17T07:58:27;102105.63;;;21.20;69.55
47753;BME280;2038;51.728;6.674;2022-07-17T08:00:54;102095.53;;;21.26;69.56
47753;BME280;2038;51.728;6.674;2022-07-17T08:03:20;102096.25;;;21.24;68.08
47753;BME280;2038;51.728;6.674;2022-07-17T08:05:46;102096.13;;;21.21;68.55
47753;BME280;2038;51.728;6.674;2022-07-17T08:08:12;102098.59;;;21.18;68.65
47753;BME280;2038;51.728;6.674;2022-07-17T08:10:39;102086.69;;;21.23;68.44
47753;BME280;2038;51.728;6.674;2022-07-17T08:13:05;102088.44;;;21.22;67.93
47753;BME280;2038;51.728;6.674;2022-07-17T08:15:32;102088.16;;;21.16;68.13
47753;BME280;2038;51.728;6.674;2022-07-17T08:17:58;102096.06;;;21.19;68.81
47753;BME280;2038;51.728;6.674;2022-07-17T08:20:26;102094.31;;;21.18;68.47
47753;BME280;2038;51.728;6.674;2022-07-17T08:22:52;102097.63;;;21.16;68.47
47753;BME280;2038;51.728;6.674;2022-07-17T08:25:19;102102.22;;;21.21;68.12
47753;BME280;2038;51.728;6.674;2022-07-17T08:27:45;102095.78;;;21.32;68.80
47753;BME280;2038;51.728;6.674;2022-07-17T08:30:13;102102.44;;;21.46;67.88
47753;BME280;2038;51.728;6.674;2022-07-17T08:32:41;102112.47;;;21.58;68.06
47753;BME280;2038;51.728;6.674;2022-07-17T08:35:08;102113.69;;;21.66;68.01
47753;BME280;2038;51.728;6.674;2022-07-17T08:37:48;102108.53;;;21.68;66.62
47753;BME280;2038;51.728;6.674;2022-07-17T08:40:21;102099.44;;;21.77;67.01
47753;BME280;2038;51.728;6.674;2022-07-17T08:42:49;102096.72;;;21.95;66.34
47753;BME280;2038;51.728;6.674;2022-07-17T08:45:17;102095.19;;;22.00;66.01
47753;BME280;2038;51.728;6.674;2022-07-17T08:47:43;102089.56;;;22.10;65.63
47753;BME280;2038;51.728;6.674;2022-07-17T08:50:11;102088.28;;;22.21;64.93
47753;BME280;2038;51.728;6.674;2022-07-17T08:52:40;102094.66;;;22.29;64.73
47753;BME280;2038;51.728;6.674;2022-07-17T08:55:12;102091.34;;;22.33;65.48
47753;BME280;2038;51.728;6.674;2022-07-17T08:57:43;102104.47;;;22.36;64.48
47753;BME280;2038;51.728;6.674;2022-07-17T09:00:12;102103.47;;;22.33;64.03
47753;BME280;2038;51.728;6.674;2022-07-17T09:02:53;102098.38;;;22.36;64.06
47753;BME280;2038;51.728;6.674;2022-07-17T09:05:28;102102.75;;;22.37;64.31
47753;BME280;2038;51.728;6.674;2022-07-17T09:07:57;102096.03;;;22.42;64.51
47753;BME280;2038;51.728;6.674;2022-07-17T09:13:23;102095.13;;;22.42;63.65
47753;BME280;2038;51.728;6.674;2022-07-17T09:15:53;102093.44;;;22.42;64.41
47753;BME280;2038;51.728;6.674;2022-07-17T09:18:22;102087.28;;;22.40;64.21
47753;BME280;2038;51.728;6.674;2022-07-17T09:20:51;102086.16;;;22.33;63.07
47753;BME280;2038;51.728;6.674;2022-07-17T09:23:20;102082.19;;;22.43;63.11
47753;BME280;2038;51.728;6.674;2022-07-17T09:25:50;102082.72;;;22.57;62.84
47753;BME280;2038;51.728;6.674;2022-07-17T09:28:18;102077.91;;;22.67;62.98
47753;BME280;2038;51.728;6.674;2022-07-17T09:30:53;102085.38;;;22.80;62.84
47753;BME280;2038;51.728;6.674;2022-07-17T09:33:23;102083.16;;;22.91;62.42
47753;BME280;2038;51.728;6.674;2022-07-17T09:35:55;102086.94;;;22.99;62.90
47753;BME280;2038;51.728;6.674;2022-07-17T09:38:37;102097.75;;;23.10;62.47
47753;BME280;2038;51.728;6.674;2022-07-17T09:41:15;102090.09;;;23.14;60.76
47753;BME280;2038;51.728;6.674;2022-07-17T09:43:53;102096.94;;;23.12;61.16
47753;BME280;2038;51.728;6.674;2022-07-17T09:46:22;102092.75;;;23.16;62.43
47753;BME280;2038;51.728;6.674;2022-07-17T09:48:54;102086.94;;;23.23;61.06
47753;BME280;2038;51.728;6.674;2022-07-17T09:51:30;102086.88;;;23.21;59.97
47753;BME280;2038;51.728;6.674;2022-07-17T09:54:05;102091.63;;;23.33;59.33
47753;BME280;2038;51.728;6.674;2022-07-17T09:56:35;102089.28;;;23.41;59.10
47753;BME280;2038;51.728;6.674;2022-07-17T09:59:07;102090.38;;;23.46;59.45
47753;BME280;2038;51.728;6.674;2022-07-17T10:01:35;102099.75;;;23.42;59.72
47753;BME280;2038;51.728;6.674;2022-07-17T10:04:03;102096.94;;;23.36;59.88
47753;BME280;2038;51.728;6.674;2022-07-17T10:06:30;102099.53;;;23.36;60.78
47753;BME280;2038;51.728;6.674;2022-07-17T10:08:57;102107.31;;;23.35;60.22
47753;BME280;2038;51.728;6.674;2022-07-17T10:11:27;102090.63;;;23.29;60.01
47753;BME280;2038;51.728;6.674;2022-07-17T10:13:56;102094.88;;;23.27;59.37
47753;BME280;2038;51.728;6.674;2022-07-17T10:16:29;102093.88;;;23.22;58.35
47753;BME280;2038;51.728;6.674;2022-07-17T10:18:57;102094.53;;;23.17;57.98
47753;BME280;2038;51.728;6.674;2022-07-17T10:21:28;102092.72;;;23.14;58.08
47753;BME280;2038;51.728;6.674;2022-07-17T10:32:18;102080.44;;;23.10;56.57
47753;BME280;2038;51.728;6.674;2022-07-17T10:35:06;102080.53;;;23.13;56.69
47753;BME280;2038;51.728;6.674;2022-07-17T10:37:40;102077.03;;;23.13;56.55
47753;BME280;2038;51.728;6.674;2022-07-17T10:42:57;102081.16;;;23.31;55.61
47753;BME280;2038;51.728;6.674;2022-07-17T10:45:31;102084.09;;;23.41;56.36
47753;BME280;2038;51.728;6.674;2022-07-17T10:48:06;102074.91;;;23.50;58.15
47753;BME280;2038;51.728;6.674;2022-07-17T10:50:39;102077.03;;;23.62;58.59
47753;BME280;2038;51.728;6.674;2022-07-17T10:55:46;102075.78;;;24.03;58.68
47753;BME280;2038;51.728;6.674;2022-07-17T11:03:26;102090.38;;;24.23;57.55
47753;BME280;2038;51.728;6.674;2022-07-17T11:05:53;102089.00;;;24.36;56.54
47753;BME280;2038;51.728;6.674;2022-07-17T11:08:19;102080.56;;;24.44;56.13
47753;BME280;2038;51.728;6.674;2022-07-17T11:10:46;102084.22;;;24.49;54.24
47753;BME280;2038;51.728;6.674;2022-07-17T11:13:15;102078.19;;;24.52;54.03
47753;BME280;2038;51.728;6.674;2022-07-17T11:15:45;102077.28;;;24.50;53.71
47753;BME280;2038;51.728;6.674;2022-07-17T11:18:20;102072.50;;;24.65;54.57
47753;BME280;2038;51.728;6.674;2022-07-17T11:20:53;102071.75;;;24.69;54.10
47753;BME280;2038;51.728;6.674;2022-07-17T11:23:22;102078.78;;;24.71;53.82
47753;BME280;2038;51.728;6.674;2022-07-17T11:28:33;102075.25;;;24.69;52.89
47753;BME280;2038;51.728;6.674;2022-07-17T11:31:04;102069.41;;;24.78;53.14
47753;BME280;2038;51.728;6.674;2022-07-17T11:33:51;102069.72;;;24.87;52.80
47753;BME280;2038;51.728;6.674;2022-07-17T11:36:32;102063.75;;;24.91;53.12
47753;BME280;2038;51.728;6.674;2022-07-17T11:39:08;102066.38;;;24.91;53.27
47753;BME280;2038;51.728;6.674;2022-07-17T11:41:40;102066.44;;;24.94;52.94
47753;BME280;2038;51.728;6.674;2022-07-17T11:44:18;102066.44;;;24.94;53.01
47753;BME280;2038;51.728;6.674;2022-07-17T11:46:49;102063.03;;;24.97;51.87
47753;BME280;2038;51.728;6.674;2022-07-17T11:49:34;102059.31;;;24.89;52.13
47753;BME280;2038;51.728;6.674;2022-07-17T11:52:09;102059.41;;;24.92;52.10
47753;BME280;2038;51.728;6.674;2022-07-17T11:55:00;102056.09;;;24.97;51.03
47753;BME280;2038;51.728;6.674;2022-07-17T11:57:27;102054.41;;;24.99;50.65
47753;BME280;2038;51.728;6.674;2022-07-17T11:59:54;102052.72;;;25.01;51.31
47753;BME280;2038;51.728;6.674;2022-07-17T12:02:31;102053.53;;;25.00;51.11
47753;BME280;2038;51.728;6.674;2022-07-17T12:04:59;102052.91;;;25.09;51.00
47753;BME280;2038;51.728;6.674;2022-07-17T12:07:38;102054.00;;;25.17;50.19
47753;BME280;2038;51.728;6.674;2022-07-17T12:10:20;102048.22;;;25.29;50.90
47753;BME280;2038;51.728;6.674;2022-07-17T12:12:59;102052.00;;;25.40;51.33
47753;BME280;2038;51.728;6.674;2022-07-17T12:15:46;102048.72;;;25.48;48.81
47753;BME280;2038;51.728;6.674;2022-07-17T12:18:25;102055.00;;;25.53;49.10
47753;BME280;2038;51.728;6.674;2022-07-17T12:20:57;102049.13;;;25.62;49.69
47753;BME280;2038;51.728;6.674;2022-07-17T12:23:37;102052.56;;;25.61;48.56
47753;BME280;2038;51.728;6.674;2022-07-17T12:26:10;102058.56;;;25.57;48.99
47753;BME280;2038;51.728;6.674;2022-07-17T12:28:38;102048.31;;;25.65;49.75
47753;BME280;2038;51.728;6.674;2022-07-17T12:31:06;102056.31;;;25.72;47.53
47753;BME280;2038;51.728;6.674;2022-07-17T12:33:33;102045.09;;;25.76;47.31
47753;BME280;2038;51.728;6.674;2022-07-17T12:36:00;102052.16;;;25.79;46.30
47753;BME280;2038;51.728;6.674;2022-07-17T12:38:26;102044.91;;;25.67;46.02
47753;BME280;2038;51.728;6.674;2022-07-17T12:40:53;102050.00;;;25.63;45.90
47753;BME280;2038;51.728;6.674;2022-07-17T12:43:19;102041.25;;;25.60;45.75
47753;BME280;2038;51.728;6.674;2022-07-17T12:45:45;102033.28;;;25.56;45.62
47753;BME280;2038;51.728;6.674;2022-07-17T12:48:12;102033.41;;;25.60;46.21
47753;BME280;2038;51.728;6.674;2022-07-17T12:50:38;102043.25;;;25.71;45.60
47753;BME280;2038;51.728;6.674;2022-07-17T12:53:05;102039.03;;;25.77;46.09
47753;BME280;2038;51.728;6.674;2022-07-17T12:55:32;102040.09;;;25.84;45.85
47753;BME280;2038;51.728;6.674;2022-07-17T12:57:59;102035.09;;;25.94;45.43
47753;BME280;2038;51.728;6.674;2022-07-17T13:00:25;102028.53;;;26.12;45.15
47753;BME280;2038;51.728;6.674;2022-07-17T13:02:52;102029.69;;;26.24;45.34
47753;BME280;2038;51.728;6.674;2022-07-17T13:05:18;102028.13;;;26.32;45.86
47753;BME280;2038;51.728;6.674;2022-07-17T13:07:44;102033.56;;;26.40;44.71
47753;BME280;2038;51.728;6.674;2022-07-17T13:10:10;102024.94;;;26.45;43.99
47753;BME280;2038;51.728;6.674;2022-07-17T13:12:37;102018.03;;;26.49;45.31
47753;BME280;2038;51.728;6.674;2022-07-17T13:15:04;102020.09;;;26.64;45.82
47753;BME280;2038;51.728;6.674;2022-07-17T13:17:31;102021.28;;;26.79;46.49
47753;BME280;2038;51.728;6.674;2022-07-17T13:19:57;102023.22;;;26.89;45.36
47753;BME280;2038;51.728;6.674;2022-07-17T13:22:23;102022.66;;;27.04;46.20
47753;BME280;2038;51.728;6.674;2022-07-17T13:24:49;102021.91;;;27.13;44.88
47753;BME280;2038;51.728;6.674;2022-07-17T13:27:16;102019.47;;;27.22;45.99
47753;BME280;2038;51.728;6.674;2022-07-17T13:29:42;102023.88;;;27.24;45.12